createdAt,value
2022-10-13T00:02:00.777Z,99.90
2022-10-13T00:12:03.261Z,99.90
2022-10-13T00:22:05.037Z,99.90
2022-10-13T00:32:06.903Z,99.90
2022-10-13T00:42:13.558Z,99.90
2022-10-13T00:52:17.901Z,99.90
2022-10-13T01:02:20.572Z,99.90
2022-10-13T01:12:40.099Z,99.90
2022-10-13T01:22:57.996Z,99.90
2022-10-13T01:33:26.359Z,99.90
2022-10-13T01:43:36.856Z,99.90
2022-10-13T01:53:39.364Z,99.90
2022-10-13T02:04:06.267Z,99.90
2022-10-13T02:14:30.427Z,99.90
2022-10-13T02:24:32.833Z,99.90
2022-10-13T02:34:34.626Z,99.90
2022-10-13T02:44:36.681Z,99.90
2022-10-13T02:54:38.570Z,99.90
2022-10-13T03:04:40.528Z,99.90
2022-10-13T03:14:42.410Z,99.90
2022-10-13T03:24:44.270Z,99.90
2022-10-13T03:34:46.137Z,99.90
2022-10-13T03:44:52.353Z,99.90
2022-10-13T03:54:59.040Z,99.90
2022-10-13T04:05:00.874Z,99.90
2022-10-13T04:15:03.212Z,99.90
2022-10-13T04:25:06.884Z,99.90
2022-10-13T04:35:08.872Z,99.90
2022-10-13T04:45:11.159Z,99.90
2022-10-13T04:55:16.410Z,99.90
2022-10-13T05:05:18.599Z,99.90
2022-10-13T05:15:20.480Z,99.90
2022-10-13T05:25:22.340Z,99.90
2022-10-13T05:35:25.508Z,99.90
2022-10-13T05:45:29.421Z,99.90
2022-10-13T05:55:31.278Z,99.90
2022-10-13T06:05:33.332Z,99.90
2022-10-13T06:15:35.250Z,99.90
2022-10-13T06:25:37.685Z,99.90
2022-10-13T06:35:39.541Z,99.90
2022-10-13T06:45:43.282Z,99.90
2022-10-13T06:55:49.033Z,99.90
2022-10-13T07:05:53.642Z,99.90
2022-10-13T07:15:55.598Z,99.90
2022-10-13T07:25:57.483Z,99.90
2022-10-13T07:35:59.702Z,99.90
2022-10-13T07:46:03.444Z,99.90
2022-10-13T07:56:08.397Z,99.90
2022-10-13T08:06:11.135Z,99.90
2022-10-13T08:16:13.212Z,99.90
2022-10-13T08:26:26.662Z,99.90
2022-10-13T08:36:28.907Z,99.90
2022-10-13T08:47:07.636Z,99.90
2022-10-13T08:57:10.927Z,99.10
2022-10-13T09:07:17.776Z,97.70
2022-10-13T09:17:22.562Z,95.70
2022-10-13T09:27:24.483Z,94.70
2022-10-13T09:37:26.549Z,90.50
2022-10-13T09:47:31.046Z,90.10
2022-10-13T09:57:39.447Z,91.00
2022-10-13T10:07:41.366Z,90.00
2022-10-13T10:17:51.909Z,90.90
2022-10-13T10:28:08.063Z,88.10
2022-10-13T10:38:26.259Z,86.20
2022-10-13T10:48:35.806Z,84.40
2022-10-13T10:58:45.064Z,86.50
2022-10-13T11:08:49.984Z,86.90
2022-10-13T11:19:01.112Z,88.00
2022-10-13T11:29:03.000Z,89.20
2022-10-13T11:39:26.806Z,90.40
2022-10-13T11:50:10.859Z,90.30
2022-10-13T12:00:19.362Z,91.80
2022-10-13T12:10:36.568Z,91.80
2022-10-13T12:20:40.707Z,93.70
2022-10-13T12:30:42.676Z,94.30
2022-10-13T12:40:44.929Z,94.30
2022-10-13T12:50:47.104Z,94.00
2022-10-13T13:00:57.867Z,94.90
2022-10-13T13:11:06.124Z,95.70
2022-10-13T13:21:19.391Z,96.10
2022-10-13T13:31:23.889Z,96.80
2022-10-13T13:41:30.132Z,97.40
2022-10-13T13:51:32.192Z,97.70
2022-10-13T14:01:34.195Z,97.90
2022-10-13T14:11:36.198Z,98.00
2022-10-13T14:21:38.055Z,98.70
2022-10-13T14:31:45.196Z,99.00
2022-10-13T14:41:47.508Z,99.90
2022-10-13T14:51:49.436Z,99.90
2022-10-13T15:01:52.977Z,99.90
2022-10-13T15:11:54.856Z,99.90
2022-10-13T15:21:56.758Z,99.90
2022-10-13T15:32:11.171Z,99.90
2022-10-13T15:42:13.071Z,99.90
2022-10-13T15:52:14.967Z,99.90
2022-10-13T16:02:17.302Z,99.90
2022-10-13T16:12:19.446Z,99.90
2022-10-13T16:22:21.781Z,99.90
2022-10-13T16:32:24.049Z,99.90
2022-10-13T16:42:25.861Z,99.90
2022-10-13T16:52:27.652Z,99.90
2022-10-13T17:02:29.528Z,99.90
2022-10-13T17:12:31.350Z,99.90
2022-10-13T17:22:33.928Z,99.90
2022-10-13T17:32:39.297Z,99.90
2022-10-13T17:42:41.265Z,99.90
2022-10-13T17:52:43.401Z,99.90
2022-10-13T18:02:46.000Z,99.90
2022-10-13T18:12:48.853Z,99.90
2022-10-13T18:22:50.750Z,99.90
2022-10-13T18:32:52.560Z,99.90
2022-10-13T18:42:55.581Z,99.90
2022-10-13T18:52:57.361Z,99.90
2022-10-13T19:02:59.230Z,99.90
2022-10-13T19:13:01.183Z,99.90
2022-10-13T19:23:03.942Z,99.90
2022-10-13T19:33:07.392Z,99.90
2022-10-13T19:43:16.043Z,99.90
2022-10-13T19:53:18.787Z,99.90
2022-10-13T20:03:20.644Z,99.90
2022-10-13T20:13:25.915Z,99.90
2022-10-13T20:23:27.973Z,99.90
2022-10-13T20:33:30.882Z,99.90
2022-10-13T20:43:33.048Z,99.90
2022-10-13T20:53:36.811Z,99.90
2022-10-13T21:03:40.277Z,99.90
2022-10-13T21:13:44.182Z,99.90
2022-10-13T21:23:49.273Z,99.90
2022-10-13T21:33:52.075Z,99.90
2022-10-13T21:43:57.428Z,99.90
2022-10-13T21:54:02.330Z,99.90
2022-10-13T22:04:05.175Z,99.90
2022-10-13T22:14:07.748Z,99.90
2022-10-13T22:24:19.104Z,99.90
2022-10-13T22:34:21.112Z,99.90
2022-10-13T22:44:23.040Z,99.90
2022-10-13T22:54:24.897Z,99.90
2022-10-13T23:04:27.685Z,99.90
2022-10-13T23:14:29.583Z,99.90
2022-10-13T23:24:31.906Z,99.90
2022-10-13T23:34:35.105Z,99.90
2022-10-13T23:44:38.458Z,99.90
2022-10-13T23:54:46.618Z,99.90
